arxmliv
arxmliv build tool
 
KWARC group
LaTeXML
About
   
 

Detailed info

Back to Homepage

List of missing_macros

No. Date Filename num_warningnum_errornum_xmargok_xmargnum_xmathok_xmathMissing macros
65601 2013-03-19 04:28:07 /9611/hep-ph.9611444 8150000[\Line, \rText, \Photon, \LogAxis, \LinAxis, \Text, \ArrowLine, \Vertex, \SetWidth, \SetScale, \SetOffset, \ZigZag, \BBox, \DashLine, \Gluon].
65602 2013-03-19 04:26:37 /9611/hep-ph.9611439 1610000[\theappendix].
65603 2013-03-19 04:25:50 /9611/hep-ph.9611410 1010000[{rotate}].
65604 2013-03-19 04:24:44 /9611/hep-ph.9611402 220000[\absize, \newlength].
65605 2013-03-19 04:24:19 /9611/hep-ph.9611406 1210000[\rotate].
65606 2013-03-19 04:23:13 /9611/hep-ph.9611341 278820000[\t@extonlytrue, \p@osinittrue, \p@osinitfalse].
65607 2013-03-19 04:22:07 /9611/hep-ph.9611378 810000[\theappendix].
65608 2013-03-19 04:21:23 /9611/hep-ph.9611331 319200000[\Vertex, \GCirc, \Line, \Photon, \psfig, \GOval, \PhotonArc]; 1 missing file[psfig].
65609 2013-03-19 04:20:51 /9611/hep-ph.9611356 6510000[\epsffileline].
65610 2013-03-19 04:20:46 /9611/hep-ph.9611353 850000[{subequations}, \fcaption, \gsim]; 1 missing file[scipp.sty].
65611 2013-03-19 04:20:41 /9611/hep-ph.9611358 14330000[{subequations}].
65612 2013-03-19 04:19:55 /9611/hep-ph.9611349 220000[\psbox]; 1 missing file[epsbox.sty].
65613 2013-03-19 04:19:36 /9611/hep-ph.9611334 1510000[\lappeq]; 1 missing file[snow2e_m.cls].
65614 2013-03-19 04:19:11 /9611/hep-ph.9611336 5950000[{Itemize}]; 1 missing file[snow2e.cls].
65615 2013-03-19 04:18:28 /9611/hep-ph.9611329 3510000[{sideways}].
65616 2013-03-19 04:18:27 /9611/hep-ph.9611324 2610000[\@cite].
65617 2013-03-19 04:17:26 /9611/hep-ph.9611305 910000[\rotate].
65618 2013-03-19 04:16:51 /9611/hep-ph.9611272 5830000[\ArrowLine, \DashLine, \Gluon].
65619 2013-03-19 04:15:14 /9611/hep-ph.9611251 3240000[Align].
65620 2013-03-19 04:13:10 /9611/hep-ph.9611247 410000[\theappendix].
65621 2013-03-19 04:12:53 /9611/hep-ph.9611227 2620000[\psfig]; 1 missing file[psfig].
65622 2013-03-19 04:12:53 /9611/hep-ph.9611236 1940000[\psfig]; 1 missing file[psfig].
65623 2013-03-19 04:11:33 /9611/hep-ph.9611213 1340000[\BoxedEPSF, \ForceHeight, \HideDisplacementBoxes]; 1 missing file[boxedepsf.sty].
65624 2013-03-19 04:10:59 /9611/hep-ph.9611204 510000[\@ignoretrue].
65625 2013-03-19 04:10:35 /9611/hep-ph.9611205 420000[{sideways}].
65626 2013-03-19 04:05:49 /9611/hep-lat.9611012 14440000[\fmfshift, {fmfgraph}, \fmf, \fmftop, \fmfv, \fmfcurved, {fmfgraph*}, \fmfset, \fmfleft, \fmfright, {fmffile}, \fmffreeze, \fmfcmd, \fmfbottom, \fmfsurround, \fmfwizard, \fmfforce].
65627 2013-03-19 03:56:40 /9611/hep-lat.9611008 1720000[\psfig]; 1 missing file[psfig].
65628 2013-03-19 03:56:32 /9611/hep-ex.9611022 3120000[\a, {sideways}].
65629 2013-03-19 03:56:09 /9611/hep-ex.9611020 1320000[\psfig]; 1 missing file[psfig].
65630 2013-03-19 03:55:55 /9611/hep-ex.9611004 620000[{sideways}].
65631 2013-03-19 03:55:25 /9611/hep-ex.9611009 190000[\psfig]; 1 missing file[psfig].
65632 2013-03-19 03:55:04 /9611/gr-qc.9611067 4070000[{prop6}, {prop2}, {prop5}, {prop3}, {prop1}, {prop4}, \newtheorem].
65633 2013-03-19 03:52:23 /9611/gr-qc.9611041 4810000[\ftnote].
65634 2013-03-19 03:52:03 /9611/gr-qc.9611036 230000[\address, \authors]; 1 missing file[hpatex.sty].
65635 2013-03-19 03:51:32 /9611/gr-qc.9611030 21110000[{centering}].
65636 2013-03-19 03:49:55 /9611/gr-qc.9611003 31710000[\ftnote].
65637 2013-03-19 03:48:10 /9611/funct-an.9611004 1410000[\owns].
65638 2013-03-19 03:47:56 /9611/funct-an.9611003 520000[\examplename, \arabic].
65639 2013-03-19 03:46:39 /9611/dg-ga.9611007 230000[\theequation].
65640 2013-03-19 03:43:32 /9611/cond-mat.9611190 020000[\psfig]; 1 missing file[psfig].
65641 2013-03-19 03:43:27 /9611/cond-mat.9611193 310000[\vfootnote].
65642 2013-03-19 03:43:00 /9611/cond-mat.9611168 15710000[\theappendix].
65643 2013-03-19 03:42:14 /9611/cond-mat.9611172 020000[\setdec, \dec].
65644 2013-03-19 03:38:27 /9611/cond-mat.9611140 820000[\psfig]; 1 missing file[psfig].
65645 2013-03-19 03:35:19 /9611/cond-mat.9611130 3150000[\epsfbox, \epsfysize].
65646 2013-03-19 03:34:49 /9611/cond-mat.9611133 120000[\psfig]; 1 missing file[psfig].
65647 2013-03-19 03:33:53 /9611/cond-mat.9611121 1350000[{turn}].
65648 2013-03-19 03:33:48 /9611/cond-mat.9611124 030000[\psfig]; 1 missing file[psfig].
65649 2013-03-19 03:31:37 /9611/cond-mat.9611108 3160000[\Review, \pacs, \inst, \dif, \institute, \stars, \Page, \shorttitle, \Name, \drm, \Vol, \And, \Pacs, \Year, \etal]; 2 missing files[EuroMacr, EuroPhys.cls].
65650 2013-03-19 03:29:37 /9611/cond-mat.9611072 2610000[{centering}].
65651 2013-03-19 03:28:01 /9611/cond-mat.9611064 1130000[\epsffile, \epsfxsize]; 1 missing file[ICSM.sty].
65652 2013-03-19 03:27:57 /9611/cond-mat.9611051 010000[\citen].
65653 2013-03-19 03:27:54 /9611/cond-mat.9611066 7320000[\psfig]; 1 missing file[psfig].
65654 2013-03-19 03:26:57 /9611/cond-mat.9611053 020000[\psfig]; 1 missing file[psfig].
65655 2013-03-19 03:25:03 /9611/cond-mat.9611019 630000[\evensidemargin, \oddsidemargin, \textwidth].
65656 2013-03-19 03:24:32 /9611/chao-dyn.9611013 23910000[\firstfigfalse].
65657 2013-03-19 03:23:43 /9611/cond-mat.9611015 050000[\PP, \KK, \GG, \RR, \MM].
65658 2013-03-19 03:23:40 /9611/comp-gas.9611001 610000[\theappendix].
65659 2013-03-19 03:23:05 /9611/cond-mat.9611005 1720000[\postscriptbox]; 1 missing file[epsbox.sty].
65660 2013-03-19 03:22:53 /9611/cond-mat.9611008 160000[\psfig]; 1 missing file[psfig.tex].
65661 2013-03-19 03:22:44 /9611/chao-dyn.9611014 1710000[\epsfig].
65662 2013-03-19 03:22:21 /9611/cmp-lg.9611001 1340000[\scr, \eng, \theappendix, \scu, {examples}, \niepsilon, \underring, \esh, \citeN, \citeauthoryear, \openo, \length, \citeNP, \citeANP, \schwa, \invscr]; 2 missing files[examples.sty, ipa.sty].
65663 2013-03-19 03:21:57 /9611/cmp-lg.9611004 3140000[\@thanks, \@date, \@title].
65664 2013-03-19 03:21:56 /9611/chao-dyn.9611009 14300000[\ftnote, \gtrsim, \lesssim, \psfig].
65665 2013-03-19 03:20:35 /9611/astro-ph.9611229 26300000[{acknowledgments}, \ls, \ifnfssone, \affiliation, \ns, \firstsection, \ifoldfss, \ifnfsstwo, \epsfbox, \epsfxsize]; 1 missing file[cupconf.sty].
65666 2013-03-19 03:20:26 /9611/astro-ph.9611228 030000[\apj, \heading]; 1 missing file[cmb.sty].
65667 2013-03-19 03:20:23 /9611/chao-dyn.9611001 3410000[\firstfigfalse].
65668 2013-03-19 03:19:42 /9611/astro-ph.9611234 440000[\sun, \inst, \psfig, \institute].
65669 2013-03-19 03:19:18 /9611/astro-ph.9611224 210000[\epsfig].
65670 2013-03-19 03:19:16 /9611/astro-ph.9611195 9440000[\affil, \Gcc, \cofsx, \K, \landscale, \citeN, \gtsim, \sneia, \ltsim, \keywords, \nupp, \ang, \righthead, \lefthead, \citeyear, \citeyearNP, \slugcomment, \kms, \acknowledgments, \MeV, \gcmsq, \gcc, \nifsx, \postfig, \cms, \msun, \ergg, \defaultscale, \M
65671 2013-03-19 03:19:15 /9611/astro-ph.9611210 930000[\sluginfo, {sidetable}]; 1 missing file[side.sty].
65672 2013-03-19 03:19:14 /9611/astro-ph.9611216 1210000[\radical].
65673 2013-03-19 03:19:09 /9611/astro-ph.9611208 3280000[\@thanks, \@authoraddress, \@preprint, \@date, \@title, \psfig, \@abstract]; 1 missing file[{psfig}].
65674 2013-03-19 03:18:48 /9611/astro-ph.9611212 050000[\mnras, \apj, \acknowledgements, \heading]; 1 missing file[cmb.sty].
65675 2013-03-19 03:18:45 /9611/astro-ph.9611215 040000[\apj, \acknowledgements, \heading]; 1 missing file[cmb.sty].
65676 2013-03-19 03:18:44 /9611/astro-ph.9611213 070000[\mnras, \apj, \aj, \acknowledgements, \heading, \nat]; 1 missing file[cmb.sty].
65677 2013-03-19 03:18:41 /9611/astro-ph.9611214 130000[\acknowledgements, \heading]; 1 missing file[cmb.sty].
65678 2013-03-19 03:18:24 /9611/astro-ph.9611200 020000[\psfig]; 1 missing file[psfig].
65679 2013-03-19 03:18:11 /9611/astro-ph.9611189 630000[\epsfbox, \epsfysize, \epsfxsize].
65680 2013-03-19 03:17:56 /9611/astro-ph.9611186 1240000[\address, \authors, \epsfig]; 1 missing file[hpatex.sty].
65681 2013-03-19 03:17:54 /9611/astro-ph.9611191 820000[\psfig]; 1 missing file[psfig.tex].
65682 2013-03-19 03:17:42 /9611/astro-ph.9611176 1120000[Align, \yesnumber].
65683 2013-03-19 03:17:33 /9611/astro-ph.9611178 540000[\reference, {references}, \keywords]; 1 missing file[ngxo.sty].
65684 2013-03-19 03:17:26 /9611/astro-ph.9611179 220000[\psfig]; 1 missing file[psfig].
65685 2013-03-19 03:17:17 /9611/astro-ph.9611180 040000[\epsfbox, \onethird, \epsfysize, \twothirds].
65686 2013-03-19 03:17:06 /9611/astro-ph.9611165 460000[{keywords}, \epsfbox, \citename, \shortcite, \epsfxsize]; 1 missing file[numcool.sty].
65687 2013-03-19 03:17:00 /9611/astro-ph.9611170 730000[\reference, {references}]; 1 missing file[prince.sty].
65688 2013-03-19 03:16:57 /9611/astro-ph.9611168 320000[\psfig]; 1 missing file[psfig.tex].
65689 2013-03-19 03:16:56 /9611/astro-ph.9611167 030000[Align, \+, \columns].
65690 2013-03-19 03:16:22 /9611/astro-ph.9611160 120000[\epsffile, \epsfxsize].
65691 2013-03-19 03:16:17 /9611/astro-ph.9611155 180000[\apjs, \mnras, \apj, \abstracts, \psfig, \aap]; 1 missing file[psfig].
65692 2013-03-19 03:16:16 /9611/astro-ph.9611156 250000[\kword, \abst, \re, \MO]; 1 missing file[PASJ95.sty].
65693 2013-03-19 03:16:07 /9611/astro-ph.9611159 420000[\astroncite, \psfig].
65694 2013-03-19 03:16:05 /9611/astro-ph.9611143 110000[\citen].
65695 2013-03-19 03:15:56 /9611/astro-ph.9611125 9820000[\psfig]; 1 missing file[psfig.tex].
65696 2013-03-19 03:15:52 /9611/astro-ph.9611144 130000[Align, \+, \columns].
65697 2013-03-19 03:15:52 /9611/astro-ph.9611145 42250000[\maketitle, \affiliation, \volume, \begintopmatter, \shorttitle, \abstract, \caption, \pageoffset, \author, \endrefs, \pubyear, \beginrefs, \section, \subsection, \shortauthor, \psfig, \keywords, \bibitem, \title, \beginfigure, \pagerange, \tx, \endfigur
65698 2013-03-19 03:14:53 /9611/astro-ph.9611122 1320000[\psfig]; 1 missing file[psfig].
65699 2013-03-19 03:14:25 /9611/astro-ph.9611142 620000[\psfig]; 1 missing file[psfig.tex].
65700 2013-03-19 03:14:12 /9611/astro-ph.9611112 25190000[\tabletail, Align, \tablehead, \psfig, \tablelasttail]; 1 missing file[psfig].
65701 2013-03-19 03:13:51 /9611/astro-ph.9611128 010000[\psfig].
65702 2013-03-19 03:13:36 /9611/astro-ph.9611131 530000[\psfig].
65703 2013-03-19 03:13:19 /9611/astro-ph.9611132 060000[\affil, \reference, {references}, \acknowledgments, \keywords]; 1 missing file[paspconf.sty].
65704 2013-03-19 03:13:17 /9611/astro-ph.9611113 080000[\affil, {answer}, \reference, \plotone, {question}, {references}, \keywords]; 1 missing file[paspconf.sty].
65705 2013-03-19 03:13:09 /9611/astro-ph.9611119 5300000[{acknowledgments}, \firstsection, \ls, \ifnfsstwo, \ifnfssone, \ifoldfss, \affiliation, \ns, \epsffile, \epsfxsize]; 1 missing file[cupconf.sty].
65706 2013-03-19 03:11:19 /9611/astro-ph.9611091 030000[\institute, \runningtitle, {opening}].
65707 2013-03-19 03:09:42 /9611/astro-ph.9611084 2920000[\epsffile, \epsfxsize].
65708 2013-03-19 03:09:00 /9611/astro-ph.9611089 270000[\thesaurus, \psfig, \institute, \offprints, \keywords]; 2 missing files[psfig, laa.sty].
65709 2013-03-19 03:08:32 /9611/astro-ph.9611068 0170000[\psfig].
65710 2013-03-19 03:07:10 /9611/astro-ph.9611071 080000[\affil, \mnras, \apj, \reference, {references}, \keywords, \altaffilmark]; 1 missing file[paspconf.sty].
65711 2013-03-19 03:05:38 /9611/astro-ph.9611066 1340000[\tablerefs, \nl, \apj, \accepted, \aaps, \slugcomment, \articleid, \aap, \acknowledgments, {deluxetable}, \startdata, \pasp, \journalid, \araa, \enddata, \colhead, \tablenum, \aj, \tablehead, \epsscale, \tablewidth, \placetable, \altaffilmark, Align, \ap
65712 2013-03-19 03:05:37 /9611/astro-ph.9611067 2250000[\psfig].
65713 2013-03-19 03:05:23 /9611/astro-ph.9611048 0110000[\affil, \apj, \pasj, \aaps, \aap, \keywords, \apjs, \mnras, \plotone, \araa]; 1 missing file[paspconf.sty].
65714 2013-03-19 03:05:06 /9611/astro-ph.9611050 1110000[\affil, \apj, \apjl, \mnras, \epsfbox, \reference, {references}, \araa, \epsfxsize]; 2 missing files[{epsf}, paspconf.sty].
65715 2013-03-19 03:04:41 /9611/astro-ph.9611054 260000[Align, \psfig, \ctyr, \institute, \acknowledgements, {opening}].
65716 2013-03-19 03:04:41 /9611/astro-ph.9611056 1120000[\epsfclipon, \epsffile, \epsfxsize].
65717 2013-03-19 03:04:38 /9611/astro-ph.9611055 710000[\picplace].
65718 2013-03-19 03:04:19 /9611/astro-ph.9611039 0120000[\apj, \aaps, \pasj, \apjl, \aap, \sun, \apjs, \astap, \reference, {references}, \acknowledgements]; 1 missing file[paspconf.sty].
65719 2013-03-19 03:04:02 /9611/astro-ph.9611031 330000[\picplace, \psfig].
65720 2013-03-19 03:03:24 /9611/astro-ph.9611033 160000[\kword, \abst, \re, \psfig, {fv}]; 1 missing file[PASJ95.sty].
65721 2013-03-19 03:03:23 /9611/astro-ph.9611034 140000[\picplace].
65722 2013-03-19 03:03:12 /9611/astro-ph.9611035 030000[\inst, \institute]; 1 missing file[lmamult_pre.sty].
65723 2013-03-19 03:03:05 /9611/astro-ph.9611036 0160000[\affil, \apj, \aj, \apjsupp, \apjlett, \plotfiddle, \aap, \acknowledgments, \keywords, \mnras, \pasp, \reference, {references}, \araa]; 1 missing file[paspconf.sty].
65724 2013-03-19 03:02:40 /9611/alg-geom.9611032 3410000[\Bbb].
65725 2013-03-19 03:01:51 /9611/alg-geom.9611012 1720000[{CD}].
65726 2013-03-19 03:01:41 /9611/astro-ph.9611004 020000[\abstracts].
65727 2013-03-19 03:01:40 /9611/alg-geom.9611030 880000[{prop}, {rem}, {notdef}, \newtheorem, {lem}, {defn}, {thm}, {assu}].
65728 2013-03-19 03:01:00 /9611/alg-geom.9611017 3730000[Align, \+, \examplename].
65729 2013-03-19 03:00:56 /9611/alg-geom.9611014 1040000[\node, \arrow, \dgARROWLENGTH, {diagram}].
65730 2013-03-19 03:00:48 /9611/alg-geom.9611013 710000[\@ignoretrue].
65731 2013-03-19 03:00:24 /9611/alg-geom.9611020 4210000[\examplename].
65732 2013-03-19 03:00:18 /9611/alg-geom.9611003 42220000[\node, \arrow, {diagram}].
65733 2013-03-19 02:59:44 /9611/alg-geom.9611004 640000[Align, \xymatrix, \ar]; 1 missing file[xy.sty].
65734 2013-03-19 02:58:03 /9611/adap-org.9611004 13120000[\rotate]; 1 missing file[psfig.tex].
65735 2013-03-19 02:57:55 /9610/solv-int.9610012 1210000[{instit}].
65736 2013-03-19 02:57:13 /9610/quant-ph.9610043 3010000[\theappendix].
65737 2013-03-19 02:56:42 /9610/quant-ph.9610038 390000[\prvastrana, \psfig, \kapitola, \headings, \datumy, \poslednastrana, \email, \refer]; 1 missing file[acta96.sty].
65738 2013-03-19 02:55:50 /9610/quant-ph.9610033 130000[\address, \thechapter, \@currentID].
65739 2013-03-19 02:54:47 /9610/quant-ph.9610015 840000[\citationstyle, \harvarditem].
65740 2013-03-19 02:53:35 /9610/q-alg.9610023 8510000[\goth].
65741 2013-03-19 02:53:04 /9610/q-alg.9610025 2610000[\drawline].
65742 2013-03-19 02:52:42 /9610/q-alg.9610014 11610000[\eightpoint].
65743 2013-03-19 02:52:15 /9610/q-alg.9610028 330000[\endCD, \CD, {CD}].
65744 2013-03-19 02:52:07 /9610/q-alg.9610026 020000[\eightpoint].
65745 2013-03-19 02:52:01 /9610/q-alg.9610016 72710000[\alloc@, \owns, \FAM]; 1 missing file[q-alg.9610016.aux].
65746 2013-03-19 02:51:53 /9610/q-alg.9610013 6630000[\Bbb, \frak]; 1 missing file[refs.tmp].
65747 2013-03-19 02:51:49 /9610/q-alg.9610017 57710000[\alloc@, \FAM]; 1 missing file[q-alg.9610017.aux].
65748 2013-03-19 02:50:32 /9610/physics.9610005 1140000[\psfig]; 1 missing file[psfig].
65749 2013-03-19 02:50:18 /9610/physics.9610010 520000[\psfig]; 1 missing file[psfig].
65750 2013-03-19 02:49:36 /9610/nucl-th.9610049 080000[\BoxedEPSF, \SetRokickiEPSFSpecial, \HideDisplacementBoxes]; 1 missing file[BoxedEPS.tex].
65751 2013-03-19 02:49:03 /9610/nucl-th.9610035 120000[\sectionnonum, \abstracts].
65752 2013-03-19 02:48:52 /9610/nucl-th.9610042 540000[\abstracts, \figlabel, \xipt, \xpt].
65753 2013-03-19 02:48:37 /9610/nucl-th.9610015 2210000[{centering}].
65754 2013-03-19 02:48:28 /9610/nucl-th.9610033 540000[\abstracts, \figlabel, \xipt, \xpt].
65755 2013-03-19 02:48:05 /9610/nucl-th.9610022 2110000[\rotate].
65756 2013-03-19 02:46:48 /9610/math.9610228 7630000[\tenpoint, \arabic, \eightpoint].
65757 2013-03-19 02:46:44 /9610/math.9610227 3140000[\citeauthoryear, {lemma}, {theorem}, \endproof, \ShortTitle, {definition}, \proof, {corollary}, {remark}, \ShortAuthor, \proofof, {proposition}]; 2 missing files[named.sty, studies.sty].
65758 2013-03-19 02:45:47 /9610/nucl-ex.9610004 5120000[{sideways}, \psfig]; 1 missing file[psfig.tex].
65759 2013-03-19 02:43:13 /9610/hep-th.9610246 010000[\centeline].
65760 2013-03-19 02:42:37 /9610/hep-th.9610252 16100000[\marginparwidth, \addtolength, \evensidemargin, \textwidth, \oddsidemargin, \topmargin, \headsep, \setlength, \textheight, \headheight].
65761 2013-03-19 02:42:10 /9610/hep-th.9610237 810000[\eqnres@t].
65762 2013-03-19 02:40:16 /9610/hep-th.9610218 610000[\vfootnote].
65763 2013-03-19 02:39:36 /9610/hep-th.9610209 730000[\psbox]; 2 missing files[YN.sty, epsbox.sty].
65764 2013-03-19 02:38:06 /9610/hep-th.9610203 2020000[{instit}]; 1 missing file[version2.sty].
65765 2013-03-19 02:34:13 /9610/hep-th.9610155 15110000[\oddsidemargin].
65766 2013-03-19 02:32:01 /9610/hep-th.9610148 3320000[\oldstyle]; 1 missing file[hep-th.9610148.refs].
65767 2013-03-19 02:30:48 /9610/hep-th.9610137 4820000[\psfig]; 1 missing file[psfig].
65768 2013-03-19 02:28:03 /9610/hep-th.9610142 920000[\psfig]; 1 missing file[psfig].
65769 2013-03-19 02:27:11 /9610/hep-th.9610114 3910000[\mathsl].
65770 2013-03-19 02:25:44 /9610/hep-th.9610094 245110000[\theappendix, \Bbb, \leqslant, \geqslant, \node, \arrow, {diagram}]; 1 missing file[amssymbols.sty].
65771 2013-03-19 02:25:16 /9610/hep-th.9610096 13410000[\Subset].
65772 2013-03-19 02:24:53 /9610/hep-th.9610109 510000[\theappendix].
65773 2013-03-19 02:22:47 /9610/hep-th.9610081 21010000[\@ignoretrue].
65774 2013-03-19 02:20:15 /9610/hep-th.9610068 050000[\today].
65775 2013-03-19 02:20:09 /9610/hep-th.9610066 4180000[\@open@row, \@thanks, \@topnum, \@date, \@title].
65776 2013-03-19 02:20:00 /9610/hep-th.9610069 45750000[Align, {subeqnarray}].
65777 2013-03-19 02:19:59 /9610/hep-th.9610071 210000[\theappendix].
65778 2013-03-19 02:19:19 /9610/hep-th.9610057 87160000[\gluon, \N, \fermion, \photon, \REG, \drawline, \SW, \photonbackx, \NW, \SE, \E, \photonbacky, \NE, \FLIPPED, \W]; 1 missing file[FEYNMAN].
65779 2013-03-19 02:18:01 /9610/hep-th.9610050 1650000[\at, \psboxscaled, \pscm, \psannotate]; 1 missing file[psbox.tex].
65780 2013-03-19 02:17:36 /9610/hep-th.9610025 3540000[\Etcompose, \lline, \ErgoBbb]; 1 missing file[{natren.def}].
65781 2013-03-19 02:17:17 /9610/hep-th.9610039 42170000[\emline].
65782 2013-03-19 02:16:25 /9610/hep-th.9610029 720000[\emline, \bezier].
65783 2013-03-19 02:16:01 /9610/hep-th.9610032 1950000[\oddsidemargin].
65784 2013-03-19 02:12:41 /9610/hep-ph.9610542 820000[\psfig]; 1 missing file[psfig].
65785 2013-03-19 02:12:27 /9610/hep-ph.9610533 1110000[\epsfsize].
65786 2013-03-19 02:12:01 /9610/hep-ph.9610531 2610000[\subfigure].
65787 2013-03-19 02:11:01 /9610/hep-ph.9610536 820000[{wrapfigure}]; 1 missing file[wrapfig2.sty].
65788 2013-03-19 02:10:51 /9610/hep-ph.9610516 360000[{Itemize}]; 1 missing file[snow2e.cls].
65789 2013-03-19 02:06:06 /9610/hep-ph.9610489 1110000[\theappendix].
65790 2013-03-19 02:04:18 /9610/hep-ph.9610494 030000[\mmaketitle, \mabstract]; 1 missing file[maps.sty].
65791 2013-03-19 02:03:42 /9610/hep-ph.9610477 0120000[\psfig]; 1 missing file[psfig].
65792 2013-03-19 02:01:46 /9610/hep-ph.9610461 10710000[\psscalefirst].
65793 2013-03-19 02:01:15 /9610/hep-ph.9610460 3920000[\psfig]; 1 missing file[psfig].
65794 2013-03-19 02:00:47 /9610/hep-ph.9610464 3150000[\ArrowLine, \Text, \Photon, \SetScale, \DashLine].
65795 2013-03-19 02:00:19 /9610/hep-ph.9610463 8100000[\psfig]; 1 missing file[psfig].
65796 2013-03-19 01:59:43 /9610/hep-ph.9610448 1420000[\@writefile]; 1 missing file[fixes.sty].
65797 2013-03-19 01:59:35 /9610/hep-ph.9610449 110000[\@ignoretrue].
65798 2013-03-19 01:58:44 /9610/hep-ph.9610437 27320000[\fmffreeze, {fmfchar*}, {fmffile}, \fmf, \fmflabel, \fmfdot, \fmfleft, \fmfright].
65799 2013-03-19 01:57:21 /9610/hep-ph.9610428 710000[\rotate].
65800 2013-03-19 01:54:45 /9610/hep-ph.9610413 420000[\psfig]; 1 missing file[psfig].
<<< >>>

[0] [200] [400] [600] [800] [1000] [1200] [1400] [1600] [1800] [2000] [2200] [2400] [2600] [2800] [3000] [3200] [3400] [3600] [3800] [4000] [4200] [4400] [4600] [4800] [5000] [5200] [5400] [5600] [5800] [6000] [6200] [6400] [6600] [6800] [7000] [7200] [7400] [7600] [7800] [8000] [8200] [8400] [8600] [8800] [9000] [9200] [9400] [9600] [9800] [10000] [10200] [10400] [10600] [10800] [11000] [11200] [11400] [11600] [11800] [12000] [12200] [12400] [12600] [12800] [13000] [13200] [13400] [13600] [13800] [14000] [14200] [14400] [14600] [14800] [15000] [15200] [15400] [15600] [15800] [16000] [16200] [16400] [16600] [16800] [17000] [17200] [17400] [17600] [17800] [18000] [18200] [18400] [18600] [18800] [19000] [19200] [19400] [19600] [19800] [20000] [20200] [20400] [20600] [20800] [21000] [21200] [21400] [21600] [21800] [22000] [22200] [22400] [22600] [22800] [23000] [23200] [23400] [23600] [23800] [24000] [24200] [24400] [24600] [24800] [25000] [25200] [25400] [25600] [25800] [26000] [26200] [26400] [26600] [26800] [27000] [27200] [27400] [27600] [27800] [28000] [28200] [28400] [28600] [28800] [29000] [29200] [29400] [29600] [29800] [30000] [30200] [30400] [30600] [30800] [31000] [31200] [31400] [31600] [31800] [32000] [32200] [32400] [32600] [32800] [33000] [33200] [33400] [33600] [33800] [34000] [34200] [34400] [34600] [34800] [35000] [35200] [35400] [35600] [35800] [36000] [36200] [36400] [36600] [36800] [37000] [37200] [37400] [37600] [37800] [38000] [38200] [38400] [38600] [38800] [39000] [39200] [39400] [39600] [39800] [40000] [40200] [40400] [40600] [40800] [41000] [41200] [41400] [41600] [41800] [42000] [42200] [42400] [42600] [42800] [43000] [43200] [43400] [43600] [43800] [44000] [44200] [44400] [44600] [44800] [45000] [45200] [45400] [45600] [45800] [46000] [46200] [46400] [46600] [46800] [47000] [47200] [47400] [47600] [47800] [48000] [48200] [48400] [48600] [48800] [49000] [49200] [49400] [49600] [49800] [50000] [50200] [50400] [50600] [50800] [51000] [51200] [51400] [51600] [51800] [52000] [52200] [52400] [52600] [52800] [53000] [53200] [53400] [53600] [53800] [54000] [54200] [54400] [54600] [54800] [55000] [55200] [55400] [55600] [55800] [56000] [56200] [56400] [56600] [56800] [57000] [57200] [57400] [57600] [57800] [58000] [58200] [58400] [58600] [58800] [59000] [59200] [59400] [59600] [59800] [60000] [60200] [60400] [60600] [60800] [61000] [61200] [61400] [61600] [61800] [62000] [62200] [62400] [62600] [62800] [63000] [63200] [63400] [63600] [63800] [64000] [64200] [64400] [64600] [64800] [65000] [65200] [65400] [65600] [65800] [66000] [66200] [66400] [66600] [66800] [67000] [67200] [67400] [67600] [67800] [68000] [68200] [68400] [68600] [68800] [69000] [69200] [69400] [69600] [69800] [70000] [70200] [70400] [70600] [70800] [71000] [71200] [71400] [71600] [71800] [72000] [72200] [72400] [72600] [72800] [73000] [73200] [73400] [73600] [73800] [74000] [74200] [74400] [74600] [74800] [75000] [75200] [75400] [75600] [75800] [76000] [76200] [76400] [76600] [76800] [77000] [77200] [77400] [77600] [77800] [78000] [78200] [78400] [78600] [78800] [79000] [79200] [79400] [79600] [79800] [80000] [80200] [80400] [80600] [80800] [81000] [81200] [81400] [81600] [81800] [82000] [82200] [82400] [82600] [82800] [83000] [83200] [83400] [83600] [83800] [84000] [84200] [84400] [84600] [84800] [85000] [85200] [85400] [85600] [85800] [86000] [86200] [86400] [86600] [86800] [87000] [87200] [87400] [87600] [87800] [88000] [88200] [88400] [88600] [88800] [89000] [89200] [89400] [89600] [89800] [90000] [90200] [90400] [90600] [90800] [91000] [91200] [91400] [91600] [91800] [92000] [92200] [92400] [92600] [92800] [93000] [93200] [93400] [93600] [93800] [94000] [94200] [94400] [94600] [94800] [95000] [95200] [95400] [95600] [95800] [96000] [96200] [96400] [96600] [96800] [97000] [97200] [97400] [97600] [97800] [98000] [98200] [98400] [98600] [98800] [99000] [99200] [99400] [99600] [99800] [100000] [100200] [100400] [100600] [100800] [101000] [101200] [101400] [101600] [101800] [102000] [102200] [102400] [102600] [102800] [103000] [103200] [103400] [103600] [103800] [104000] [104200] [104400] [104600] [104800] [105000] [105200] [105400] [105600] [105800] [106000] [106200] [106400] [106600] [106800] [107000] [107200] [107400] [107600] [107800] [108000] [108200] [108400] [108600] [108800] [109000] [109200] [109400] [109600] [109800] [110000] [110200] [110400] [110600] [110800] [111000] [111200] [111400] [111600] [111800] [112000] [112200] [112400] [112600] [112800] [113000] [113200] [113400] [113600] [113800] [114000] [114200] [114400] [114600] [114800] [115000] [115200] [115400] [115600] [115800] [116000] [116200] [116400] [116600] [116800] [117000] [117200] [117400] [117600] [117800] [118000] [118200] [118400] [118600] [118800] [119000] [119200] [119400] [119600] [119800] [120000] [120200] [120400] [120600] [120800] [121000] [121200] [121400] [121600] [121800] [122000] [122200] [122400] [122600] [122800] [123000] [123200] [123400] [123600] [123800] [124000] [124200] [124400] [124600] [124800] [125000] [125200] [125400] [125600] [125800] [126000] [126200] [126400] [126600] [126800] [127000] [127200] [127400] [127600] [127800] [128000] [128200] [128400] [128600] [128800] [129000] [129200] [129400] [129600] [129800] [130000] [130200] [130400] [130600] [130800] [131000] [131200] [131400] [131600] [131800] [132000] [132200] [132400] [132600] [132800] [133000] [133200] [133400] [133600] [133800] [134000] [134200] [134400] [134600] [134800] [135000] [135200] [135400] [135600] [135800] [136000] [136200] [136400] [136600] [136800] [137000] [137200] [137400] [137600] [137800] [138000] [138200] [138400] [138600] [138800] [139000] [139200] [139400] [139600] [139800] [140000] [140200] [140400] [140600] [140800] [141000] [141200] [141400] [141600] [141800] [142000] [142200] [142400] [142600] [142800] [143000] [143200] [143400] [143600] [143800] [144000] [144200] [144400] [144600] [144800] [145000] [145200] [145400] [145600] [145800] [146000] [146200] [146400] [146600] [146800] [147000] [147200] [147400] [147600] [147800] [148000] [148200] [148400] [148600] [148800] [149000] [149200] [149400] [149600] [149800] [150000] [150200] [150400] [150600] [150800] [151000] [151200] [151400] [151600] [151800] [152000] [152200] [152400] [152600] [152800] [153000] [153200] [153400] [153600] [153800] [154000] [154200] [154400] [154600] [154800] [155000] [155200] [155400] [155600] [155800] [156000] [156200] [156400] [156600] [156800] [157000] [157200] [157400] [157600] [157800] [158000] [158200] [158400] [158600] [158800] [159000] [159200] [159400] [159600] [159800] [160000] [160200] [160400] [160600] [160800] [161000] [161200] [161400] [161600] [161800] [162000] [162200] [162400] [162600] [162800] [163000] [163200] [163400] [163600] [163800] [164000] [164200] [164400] [164600]
 
  The service has been written by
Heinrich Stamerjohanns